createdAt,value
2018-11-02T00:01:08.880Z,100919.13
2018-11-02T00:02:13.015Z,100921.79
2018-11-02T00:03:17.080Z,100925.41
2018-11-02T00:04:21.282Z,100932.28
2018-11-02T00:05:25.419Z,100932.28
2018-11-02T00:06:30.239Z,100929.14
2018-11-02T00:07:34.204Z,100930.95
2018-11-02T00:08:38.361Z,100920.58
2018-11-02T00:09:42.460Z,100931.69
2018-11-02T00:10:46.594Z,100934.20
2018-11-02T00:11:50.803Z,100940.85
2018-11-02T00:12:55.275Z,100936.05
2018-11-02T00:14:00.108Z,100947.39
2018-11-02T00:15:04.386Z,100943.88
2018-11-02T00:16:08.481Z,100947.76
2018-11-02T00:17:12.632Z,100950.90
2018-11-02T00:18:16.785Z,100945.91
2018-11-02T00:19:26.251Z,100948.94
2018-11-02T00:20:30.597Z,100953.30
2018-11-02T00:21:34.786Z,100949.30
2018-11-02T00:22:39.154Z,100950.27
2018-11-02T00:23:43.215Z,100946.28
2018-11-02T00:24:47.407Z,100948.94
2018-11-02T00:25:51.545Z,100946.28
2018-11-02T00:26:55.684Z,100948.45
2018-11-02T00:27:59.855Z,100944.58
2018-11-02T00:29:04.131Z,100936.59
2018-11-02T00:30:08.302Z,100943.25
2018-11-02T00:31:12.479Z,100933.61
2018-11-02T00:32:16.724Z,100938.92
2018-11-02T00:33:20.888Z,100936.59
2018-11-02T00:34:25.010Z,100939.26
2018-11-02T00:35:29.241Z,100948.09
2018-11-02T00:36:33.780Z,100937.11
2018-11-02T00:37:38.492Z,100934.94
2018-11-02T00:38:42.658Z,100930.09
2018-11-02T00:39:47.408Z,100924.30
2018-11-02T00:40:51.480Z,100921.27
2018-11-02T00:41:55.719Z,100925.26
2018-11-02T00:42:59.899Z,100925.63
2018-11-02T00:44:04.281Z,100927.80
2018-11-02T00:45:10.010Z,100926.47
2018-11-02T00:46:14.111Z,100925.95
2018-11-02T00:47:18.212Z,100927.80
2018-11-02T00:48:22.328Z,100928.62
2018-11-02T00:49:26.586Z,100934.94
2018-11-02T00:50:30.826Z,100938.92
2018-11-02T00:51:35.552Z,100945.36
2018-11-02T00:52:39.653Z,100948.13
2018-11-02T00:53:43.785Z,100948.77
2018-11-02T00:54:47.789Z,100957.34
2018-11-02T00:55:51.911Z,100954.83
2018-11-02T00:56:56.021Z,100965.25
2018-11-02T00:58:00.942Z,100967.17
2018-11-02T00:59:05.182Z,100971.78
2018-11-02T01:00:11.510Z,100970.23
2018-11-02T01:01:16.281Z,100973.13
2018-11-02T01:02:20.425Z,100982.20
2018-11-02T01:03:24.839Z,100977.52
2018-11-02T01:04:28.984Z,100977.29
2018-11-02T01:05:33.390Z,100978.73
2018-11-02T01:06:38.015Z,100979.95
2018-11-02T01:07:42.223Z,100987.34
2018-11-02T01:08:46.359Z,100981.64
2018-11-02T01:09:50.565Z,100989.25
2018-11-02T01:10:54.636Z,100993.16
2018-11-02T01:11:59.893Z,100995.08
2018-11-02T01:13:04.118Z,100994.02
2018-11-02T01:14:09.053Z,101000.80
2018-11-02T01:15:13.160Z,101000.91
2018-11-02T01:16:17.448Z,101004.05
2018-11-02T01:17:21.559Z,101009.51
2018-11-02T01:18:25.812Z,101006.48
2018-11-02T01:19:33.856Z,100999.34
2018-11-02T01:20:37.953Z,101011.42
2018-11-02T01:21:42.064Z,101015.41
2018-11-02T01:22:46.240Z,101021.95
2018-11-02T01:23:50.934Z,101016.97
2018-11-02T01:24:54.988Z,101018.19
2018-11-02T01:25:59.260Z,101020.23
2018-11-02T01:27:03.442Z,101012.25
2018-11-02T01:28:07.717Z,101020.12
2018-11-02T01:29:11.841Z,101020.97
2018-11-02T01:30:15.913Z,101028.47
2018-11-02T01:31:20.170Z,101035.45
2018-11-02T01:32:24.363Z,101032.68
2018-11-02T01:33:33.738Z,101033.39
2018-11-02T01:34:37.849Z,101036.05
2018-11-02T01:35:42.076Z,101031.47
2018-11-02T01:36:46.149Z,101033.50
2018-11-02T01:37:50.288Z,101031.55
2018-11-02T01:38:54.449Z,101031.92
2018-11-02T01:39:58.777Z,101030.81
2018-11-02T01:41:03.292Z,101033.73
2018-11-02T01:42:07.453Z,101033.11
2018-11-02T01:43:11.705Z,101028.50
2018-11-02T01:44:15.775Z,101034.07
2018-11-02T01:45:20.002Z,101038.77
2018-11-02T01:46:24.080Z,101035.62
2018-11-02T01:47:28.290Z,101037.81
2018-11-02T01:48:32.406Z,101036.81
2018-11-02T01:49:36.543Z,101035.86
2018-11-02T01:50:40.692Z,101034.89
2018-11-02T01:51:44.832Z,101036.22
2018-11-02T01:52:48.975Z,101042.73
2018-11-02T01:53:53.214Z,101045.28
2018-11-02T01:54:57.336Z,101049.61
2018-11-02T01:56:01.723Z,101042.14
2018-11-02T01:57:06.345Z,101044.66
2018-11-02T01:58:10.613Z,101045.50
2018-11-02T01:59:14.750Z,101044.66
2018-11-02T02:00:18.933Z,101045.98
2018-11-02T02:01:23.081Z,101044.17
2018-11-02T02:02:27.246Z,101050.94
2018-11-02T02:03:31.490Z,101053.73
2018-11-02T02:04:35.670Z,101049.75
2018-11-02T02:05:40.353Z,101061.34
2018-11-02T02:06:44.461Z,101052.04
2018-11-02T02:07:48.566Z,101051.56
2018-11-02T02:08:53.055Z,101060.02
2018-11-02T02:09:57.177Z,101062.34
2018-11-02T02:11:01.309Z,101063.67
2018-11-02T02:12:05.947Z,101065.48
2018-11-02T02:13:10.160Z,101065.48
2018-11-02T02:14:14.390Z,101070.06
2018-11-02T02:15:18.515Z,101067.07
2018-11-02T02:16:22.725Z,101071.06
2018-11-02T02:17:27.824Z,101080.48
2018-11-02T02:18:32.024Z,101078.19
2018-11-02T02:19:36.189Z,101081.81
2018-11-02T02:20:43.452Z,101080.48
2018-11-02T02:21:47.714Z,101090.50
2018-11-02T02:22:51.781Z,101087.36
2018-11-02T02:23:55.956Z,101091.72
2018-11-02T02:25:00.080Z,101095.59
2018-11-02T02:26:04.647Z,101090.98
2018-11-02T02:27:08.733Z,101092.31
2018-11-02T02:28:12.940Z,101088.70
2018-11-02T02:29:17.184Z,101092.31
2018-11-02T02:30:21.255Z,101095.94
2018-11-02T02:31:25.675Z,101096.30
2018-11-02T02:32:29.810Z,101101.48
2018-11-02T02:33:34.791Z,101103.66
2018-11-02T02:34:38.898Z,101102.00
2018-11-02T02:35:43.033Z,101102.95
2018-11-02T02:36:47.193Z,101105.73
2018-11-02T02:37:51.261Z,101106.24
2018-11-02T02:38:55.373Z,101115.55
2018-11-02T02:39:59.607Z,101110.56
2018-11-02T02:41:03.716Z,101115.89
2018-11-02T02:42:07.926Z,101113.59
2018-11-02T02:43:12.718Z,101121.21
2018-11-02T02:44:16.803Z,101122.06
2018-11-02T02:45:21.041Z,101128.59
2018-11-02T02:46:25.727Z,101121.58
2018-11-02T02:47:29.974Z,101124.24
2018-11-02T02:48:34.231Z,101127.27
2018-11-02T02:49:38.340Z,101119.62
2018-11-02T02:50:42.546Z,101127.02
2018-11-02T02:51:46.587Z,101125.69
2018-11-02T02:52:51.166Z,101125.69
2018-11-02T02:53:55.279Z,101123.03
2018-11-02T02:54:59.825Z,101124.36
2018-11-02T02:56:03.893Z,101123.36
2018-11-02T02:57:08.036Z,101124.36
2018-11-02T02:58:12.326Z,101129.79
2018-11-02T02:59:16.715Z,101128.23
2018-11-02T03:00:20.913Z,101133.66
2018-11-02T03:01:24.981Z,101136.32
2018-11-02T03:02:29.213Z,101137.80
2018-11-02T03:03:33.295Z,101139.13
2018-11-02T03:04:37.455Z,101142.27
2018-11-02T03:05:41.881Z,101145.77
2018-11-02T03:06:46.021Z,101149.77
2018-11-02T03:07:50.135Z,101146.25
2018-11-02T03:08:54.885Z,101151.20
2018-11-02T03:09:58.977Z,101156.05
2018-11-02T03:11:03.383Z,101156.66
2018-11-02T03:12:07.392Z,101166.45
2018-11-02T03:13:11.506Z,101162.23
2018-11-02T03:14:15.841Z,101160.91
2018-11-02T03:15:19.924Z,101160.78
2018-11-02T03:16:24.205Z,101165.73
2018-11-02T03:17:28.288Z,101165.63
2018-11-02T03:18:32.497Z,101167.80
2018-11-02T03:19:36.618Z,101173.60
2018-11-02T03:20:40.880Z,101175.04
2018-11-02T03:21:44.907Z,101175.04
2018-11-02T03:22:49.032Z,101180.02
2018-11-02T03:23:53.156Z,101178.32
2018-11-02T03:24:57.362Z,101181.09
2018-11-02T03:26:01.483Z,101187.26
2018-11-02T03:27:05.624Z,101185.92
2018-11-02T03:28:09.819Z,101195.23
2018-11-02T03:29:13.955Z,101194.65
2018-11-02T03:30:18.065Z,101193.91
2018-11-02T03:31:22.219Z,101189.55
2018-11-02T03:32:26.325Z,101196.70
2018-11-02T03:33:30.358Z,101199.84
2018-11-02T03:34:34.615Z,101201.52
2018-11-02T03:35:38.778Z,101197.89
2018-11-02T03:36:43.018Z,101202.12
2018-11-02T03:37:47.018Z,101210.09
2018-11-02T03:38:51.244Z,101198.85
2018-11-02T03:39:55.311Z,101210.09
2018-11-02T03:40:59.530Z,101210.95
2018-11-02T03:42:03.785Z,101212.65
2018-11-02T03:43:07.927Z,101211.18
2018-11-02T03:44:12.185Z,101213.36
2018-11-02T03:45:16.318Z,101221.23
2018-11-02T03:46:20.438Z,101216.39
2018-11-02T03:47:24.517Z,101211.69
2018-11-02T03:48:28.805Z,101215.55
2018-11-02T03:49:33.770Z,101216.39
2018-11-02T03:50:38.488Z,101224.48
2018-11-02T03:51:42.732Z,101222.33
2018-11-02T03:52:46.978Z,101231.13
2018-11-02T03:53:51.106Z,101223.15
2018-11-02T03:54:55.263Z,101222.19
2018-11-02T03:55:59.820Z,101229.22
2018-11-02T03:57:03.970Z,101230.55
2018-11-02T03:58:08.131Z,101229.59
2018-11-02T03:59:12.687Z,101231.62
2018-11-02T04:00:16.872Z,101235.62
2018-11-02T04:01:21.218Z,101235.25
2018-11-02T04:02:25.479Z,101238.39
2018-11-02T04:03:29.662Z,101244.70
2018-11-02T04:04:33.934Z,101239.38
2018-11-02T04:05:38.045Z,101239.38
2018-11-02T04:06:42.684Z,101240.23
2018-11-02T04:07:46.898Z,101240.33
2018-11-02T04:08:51.109Z,101243.72
2018-11-02T04:09:55.227Z,101252.20
2018-11-02T04:10:59.426Z,101257.52
2018-11-02T04:12:03.585Z,101256.30
2018-11-02T04:13:07.701Z,101263.91
2018-11-02T04:14:11.911Z,101258.58
2018-11-02T04:15:16.125Z,101268.88
2018-11-02T04:16:20.313Z,101267.18
2018-11-02T04:17:25.099Z,101261.48
2018-11-02T04:18:29.319Z,101272.50
2018-11-02T04:19:33.487Z,101277.68
2018-11-02T04:20:37.657Z,101275.53
2018-11-02T04:21:47.390Z,101277.81
2018-11-02T04:22:54.969Z,101284.47
2018-11-02T04:24:03.523Z,101277.34
2018-11-02T04:25:07.752Z,101286.17
2018-11-02T04:26:12.699Z,101288.83
2018-11-02T04:27:16.915Z,101288.83
2018-11-02T04:28:21.052Z,101297.39
2018-11-02T04:29:25.239Z,101284.34
2018-11-02T04:30:29.351Z,101293.89
2018-11-02T04:31:33.407Z,101295.83
2018-11-02T04:32:37.573Z,101300.78
2018-11-02T04:33:41.785Z,101296.41
2018-11-02T04:34:46.111Z,101299.08
2018-11-02T04:35:50.254Z,101302.21
2018-11-02T04:36:54.475Z,101301.02
2018-11-02T04:37:58.837Z,101306.81
2018-11-02T04:39:03.060Z,101314.79
2018-11-02T04:40:07.711Z,101317.45
2018-11-02T04:41:11.951Z,101319.26
2018-11-02T04:42:16.116Z,101321.68
2018-11-02T04:43:20.312Z,101322.39
2018-11-02T04:44:24.398Z,101330.98
2018-11-02T04:45:32.775Z,101336.16
2018-11-02T04:46:37.232Z,101332.04
2018-11-02T04:47:41.368Z,101333.98
2018-11-02T04:48:45.727Z,101336.88
2018-11-02T04:49:49.868Z,101338.54
2018-11-02T04:50:54.056Z,101337.55
2018-11-02T04:51:58.115Z,101342.14
2018-11-02T04:53:02.867Z,101345.03
2018-11-02T04:54:07.005Z,101349.35
2018-11-02T04:55:11.221Z,101344.75
2018-11-02T04:56:15.392Z,101348.02
2018-11-02T04:57:19.476Z,101342.78
2018-11-02T04:58:23.658Z,101353.56
2018-11-02T04:59:27.880Z,101348.00
2018-11-02T05:00:32.542Z,101353.41
2018-11-02T05:01:36.852Z,101355.92
2018-11-02T05:02:40.909Z,101358.81
2018-11-02T05:03:45.072Z,101363.88
2018-11-02T05:04:49.273Z,101364.58
2018-11-02T05:05:53.442Z,101362.16
2018-11-02T05:06:57.675Z,101370.59
2018-11-02T05:08:02.060Z,101370.25
2018-11-02T05:09:07.873Z,101383.16
2018-11-02T05:10:12.056Z,101382.05
2018-11-02T05:11:16.568Z,101374.06
2018-11-02T05:12:20.703Z,101383.13
2018-11-02T05:13:24.848Z,101385.41
2018-11-02T05:14:29.153Z,101390.72
2018-11-02T05:15:33.244Z,101394.70
2018-11-02T05:16:37.318Z,101392.03
2018-11-02T05:17:41.518Z,101403.37
2018-11-02T05:18:45.787Z,101387.64
2018-11-02T05:19:49.829Z,101402.52
2018-11-02T05:20:53.972Z,101402.30
2018-11-02T05:21:58.057Z,101402.20
2018-11-02T05:23:02.145Z,101403.68
2018-11-02T05:24:06.242Z,101407.91
2018-11-02T05:25:10.865Z,101409.02
2018-11-02T05:26:15.048Z,101416.04
2018-11-02T05:27:19.155Z,101412.17
2018-11-02T05:28:23.356Z,101416.54
2018-11-02T05:29:27.484Z,101418.59
2018-11-02T05:30:31.666Z,101411.83
2018-11-02T05:31:36.211Z,101423.33
2018-11-02T05:32:40.598Z,101422.34
2018-11-02T05:33:44.786Z,101431.93
2018-11-02T05:34:49.019Z,101433.13
2018-11-02T05:35:53.121Z,101436.16
2018-11-02T05:36:57.317Z,101436.55
2018-11-02T05:38:01.444Z,101440.39
2018-11-02T05:39:08.594Z,101447.89
2018-11-02T05:40:12.901Z,101449.00
2018-11-02T05:41:17.112Z,101448.39
2018-11-02T05:42:21.373Z,101451.80
2018-11-02T05:43:25.456Z,101450.86
2018-11-02T05:44:30.170Z,101454.23
2018-11-02T05:45:34.419Z,101457.27
2018-11-02T05:46:38.631Z,101465.97
2018-11-02T05:47:42.711Z,101461.03
2018-11-02T05:48:46.930Z,101449.30
2018-11-02T05:49:51.265Z,101459.95
2018-11-02T05:50:55.476Z,101461.75
2018-11-02T05:51:59.595Z,101465.76
2018-11-02T05:53:04.442Z,101470.60
2018-11-02T05:54:08.711Z,101462.86
2018-11-02T05:55:12.909Z,101472.69
2018-11-02T05:56:17.101Z,101477.40
2018-11-02T05:57:21.349Z,101476.79
2018-11-02T05:58:25.707Z,101480.30
2018-11-02T05:59:29.915Z,101483.81
2018-11-02T06:00:34.119Z,101489.98
2018-11-02T06:01:39.158Z,101499.29
2018-11-02T06:02:43.229Z,101501.47
2018-11-02T06:03:47.792Z,101498.44
2018-11-02T06:04:51.987Z,101498.42
2018-11-02T06:05:56.138Z,101496.70
2018-11-02T06:07:00.449Z,101509.30
2018-11-02T06:08:05.022Z,101517.05
2018-11-02T06:09:09.418Z,101517.05
2018-11-02T06:10:13.573Z,101521.52
2018-11-02T06:11:17.791Z,101526.35
2018-11-02T06:12:21.911Z,101521.52
2018-11-02T06:13:26.139Z,101530.34
2018-11-02T06:14:30.295Z,101532.63
2018-11-02T06:15:34.592Z,101541.58
2018-11-02T06:16:38.839Z,101537.59
2018-11-02T06:17:42.922Z,101540.25
2018-11-02T06:18:47.200Z,101543.77
2018-11-02T06:19:51.257Z,101536.48
2018-11-02T06:20:55.333Z,101550.19
2018-11-02T06:21:59.465Z,101543.16
2018-11-02T06:23:03.637Z,101546.92
2018-11-02T06:24:07.800Z,101551.86
2018-11-02T06:25:11.944Z,101547.02
2018-11-02T06:26:16.142Z,101549.33
2018-11-02T06:27:20.340Z,101558.98
2018-11-02T06:28:24.509Z,101557.17
2018-11-02T06:29:29.799Z,101558.03
2018-11-02T06:30:34.309Z,101561.55
2018-11-02T06:31:38.658Z,101564.81
2018-11-02T06:32:42.843Z,101567.19
2018-11-02T06:33:47.017Z,101571.17
2018-11-02T06:34:51.091Z,101579.37
2018-11-02T06:35:55.316Z,101573.33
2018-11-02T06:36:59.523Z,101569.81
2018-11-02T06:38:03.613Z,101575.26
2018-11-02T06:39:09.047Z,101579.34
2018-11-02T06:40:13.095Z,101577.28
2018-11-02T06:41:17.523Z,101577.00
2018-11-02T06:42:21.695Z,101581.59
2018-11-02T06:43:25.855Z,101588.08
2018-11-02T06:44:30.148Z,101596.88
2018-11-02T06:45:34.513Z,101598.52
2018-11-02T06:46:38.820Z,101602.84
2018-11-02T06:47:42.965Z,101603.03
2018-11-02T06:48:47.622Z,101603.25
2018-11-02T06:49:51.717Z,101605.17
2018-11-02T06:50:55.894Z,101599.91
2018-11-02T06:52:00.057Z,101612.13
2018-11-02T06:53:04.568Z,101611.39
2018-11-02T06:54:08.695Z,101614.17
2018-11-02T06:55:12.716Z,101615.85
2018-11-02T06:56:16.931Z,101622.88
2018-11-02T06:57:21.021Z,101621.98
2018-11-02T06:58:31.485Z,101624.80
2018-11-02T06:59:35.707Z,101635.42
2018-11-02T07:00:40.077Z,101630.11
2018-11-02T07:01:44.429Z,101636.16
2018-11-02T07:02:48.475Z,101631.22
2018-11-02T07:03:52.555Z,101625.91
2018-11-02T07:04:56.843Z,101636.67
2018-11-02T07:06:00.939Z,101636.97
2018-11-02T07:07:05.280Z,101648.41
2018-11-02T07:08:09.458Z,101643.48
2018-11-02T07:09:13.824Z,101651.71
2018-11-02T07:10:17.891Z,101646.78
2018-11-02T07:11:21.987Z,101653.68
2018-11-02T07:12:26.398Z,101658.90
2018-11-02T07:13:30.628Z,101663.62
2018-11-02T07:14:34.862Z,101660.96
2018-11-02T07:15:39.090Z,101667.86
2018-11-02T07:16:43.171Z,101666.44
2018-11-02T07:17:47.264Z,101671.16
2018-11-02T07:18:51.509Z,101679.42
2018-11-02T07:19:55.627Z,101675.78
2018-11-02T07:20:59.884Z,101676.55
2018-11-02T07:22:04.012Z,101675.22
2018-11-02T07:23:08.101Z,101679.20
2018-11-02T07:24:12.404Z,101678.83
2018-11-02T07:25:16.736Z,101674.58
2018-11-02T07:26:20.657Z,101680.38
2018-11-02T07:27:24.798Z,101673.18
2018-11-02T07:28:28.987Z,101676.59
2018-11-02T07:29:34.001Z,101684.58
2018-11-02T07:30:38.055Z,101680.80
2018-11-02T07:31:42.161Z,101688.48
2018-11-02T07:32:46.252Z,101689.77
2018-11-02T07:33:50.507Z,101691.31
2018-11-02T07:34:55.037Z,101692.20
2018-11-02T07:35:59.168Z,101694.39
2018-11-02T07:37:03.337Z,101699.06
2018-11-02T07:38:07.462Z,101704.37
2018-11-02T07:39:11.963Z,101699.19
2018-11-02T07:40:16.116Z,101705.18
2018-11-02T07:41:20.276Z,101706.59
2018-11-02T07:42:24.417Z,101707.19
2018-11-02T07:43:28.576Z,101715.72
2018-11-02T07:44:32.716Z,101720.17
2018-11-02T07:45:36.802Z,101718.50
2018-11-02T07:46:41.023Z,101718.97
2018-11-02T07:47:45.325Z,101717.25
2018-11-02T07:48:49.381Z,101726.94
2018-11-02T07:49:53.627Z,101728.27
2018-11-02T07:50:57.703Z,101728.14
2018-11-02T07:52:01.802Z,101726.81
2018-11-02T07:53:05.907Z,101718.41
2018-11-02T07:54:10.017Z,101728.14
2018-11-02T07:55:15.074Z,101727.33
2018-11-02T07:56:19.120Z,101730.92
2018-11-02T07:57:23.575Z,101732.84
2018-11-02T07:58:27.732Z,101730.19
2018-11-02T07:59:31.885Z,101730.66
2018-11-02T08:00:36.056Z,101734.64
2018-11-02T08:01:40.168Z,101733.41
2018-11-02T08:02:45.653Z,101735.59
2018-11-02T08:03:50.122Z,101725.44
2018-11-02T08:04:54.170Z,101727.44
2018-11-02T08:05:58.370Z,101723.93
2018-11-02T08:07:02.539Z,101728.42
2018-11-02T08:08:06.828Z,101724.34
2018-11-02T08:09:12.755Z,101725.11
2018-11-02T08:10:16.844Z,101722.08
2018-11-02T08:11:21.010Z,101725.20
2018-11-02T08:12:25.166Z,101726.14
2018-11-02T08:13:29.366Z,101728.45
2018-11-02T08:14:33.502Z,101730.25
2018-11-02T08:15:37.642Z,101726.44
2018-11-02T08:16:42.038Z,101732.69
2018-11-02T08:17:46.598Z,101728.83
2018-11-02T08:18:50.625Z,101730.98
2018-11-02T08:19:54.763Z,101732.30
2018-11-02T08:20:58.850Z,101732.42
2018-11-02T08:22:03.669Z,101737.82
2018-11-02T08:23:14.396Z,101735.28
2018-11-02T08:24:18.438Z,101732.83
2018-11-02T08:25:22.664Z,101738.61
2018-11-02T08:26:27.303Z,101748.85
2018-11-02T08:27:31.541Z,101749.79
2018-11-02T08:28:35.712Z,101752.09
2018-11-02T08:29:39.831Z,101748.11
2018-11-02T08:30:43.953Z,101753.16
2018-11-02T08:31:48.133Z,101752.00
2018-11-02T08:32:52.487Z,101756.48
2018-11-02T08:33:56.586Z,101755.63
2018-11-02T08:35:00.813Z,101753.83
2018-11-02T08:36:05.032Z,101755.16
2018-11-02T08:37:09.236Z,101756.09
2018-11-02T08:38:13.397Z,101754.77
2018-11-02T08:39:17.741Z,101763.94
2018-11-02T08:40:21.806Z,101764.45
2018-11-02T08:41:25.903Z,101761.02
2018-11-02T08:42:36.657Z,101770.49
2018-11-02T08:43:40.791Z,101773.15
2018-11-02T08:44:44.998Z,101777.59
2018-11-02T08:45:49.970Z,101779.78
2018-11-02T08:46:54.189Z,101782.44
2018-11-02T08:47:58.484Z,101778.66
2018-11-02T08:49:02.612Z,101778.27
2018-11-02T08:50:08.177Z,101775.62
2018-11-02T08:51:12.264Z,101783.11
2018-11-02T08:52:16.390Z,101772.03
2018-11-02T08:53:20.621Z,101780.92
2018-11-02T08:54:24.689Z,101787.95
2018-11-02T08:55:28.763Z,101787.48
2018-11-02T08:56:32.937Z,101786.63
2018-11-02T08:57:37.531Z,101784.70
2018-11-02T08:58:41.795Z,101788.69
2018-11-02T08:59:52.389Z,101790.67
2018-11-02T09:00:58.534Z,101793.13
2018-11-02T09:02:02.719Z,101794.16
2018-11-02T09:03:06.827Z,101805.33
2018-11-02T09:04:10.978Z,101801.53
2018-11-02T09:05:15.136Z,101802.21
2018-11-02T09:06:19.437Z,101801.92
2018-11-02T09:07:23.499Z,101802.93
2018-11-02T09:08:27.741Z,101794.11
2018-11-02T09:09:31.838Z,101803.76
2018-11-02T09:10:36.196Z,101804.88
2018-11-02T09:11:40.293Z,101806.86
2018-11-02T09:12:44.462Z,101803.91
2018-11-02T09:13:48.625Z,101808.55
2018-11-02T09:14:52.812Z,101803.11
2018-11-02T09:15:57.011Z,101799.72
2018-11-02T09:17:01.084Z,101808.61
2018-11-02T09:18:05.269Z,101805.95
2018-11-02T09:19:09.378Z,101807.63
2018-11-02T09:20:13.559Z,101809.73
2018-11-02T09:21:17.736Z,101810.47
2018-11-02T09:22:21.999Z,101817.49
2018-11-02T09:23:26.203Z,101808.92
2018-11-02T09:24:30.405Z,101813.68
2018-11-02T09:25:34.583Z,101813.68
2018-11-02T09:26:38.833Z,101814.42
2018-11-02T09:27:43.286Z,101812.14
2018-11-02T09:28:47.732Z,101806.92
2018-11-02T09:29:52.021Z,101817.08
2018-11-02T09:30:56.749Z,101812.23
2018-11-02T09:32:01.043Z,101819.00
2018-11-02T09:33:05.507Z,101814.53
2018-11-02T09:34:09.696Z,101820.33
2018-11-02T09:35:14.752Z,101812.91
2018-11-02T09:36:18.833Z,101819.94
2018-11-02T09:37:22.934Z,101819.55
2018-11-02T09:38:27.185Z,101819.20
2018-11-02T09:39:31.276Z,101827.18
2018-11-02T09:40:35.561Z,101818.38
2018-11-02T09:41:39.590Z,101825.76
2018-11-02T09:42:43.868Z,101828.89
2018-11-02T09:43:47.771Z,101837.89
2018-11-02T09:44:51.905Z,101842.95
2018-11-02T09:45:56.114Z,101843.03
2018-11-02T09:47:00.290Z,101852.80
2018-11-02T09:48:05.381Z,101854.13
2018-11-02T09:49:09.612Z,101860.42
2018-11-02T09:50:13.887Z,101866.68
2018-11-02T09:51:18.080Z,101860.42
2018-11-02T09:52:22.498Z,101866.68
2018-11-02T09:53:26.756Z,101866.20
2018-11-02T09:54:30.972Z,101871.05
2018-11-02T09:55:35.131Z,101866.09
2018-11-02T09:56:39.211Z,101872.17
2018-11-02T09:57:44.463Z,101870.25
2018-11-02T09:58:48.594Z,101871.97
2018-11-02T09:59:52.780Z,101869.70
2018-11-02T10:00:57.539Z,101876.14
2018-11-02T10:02:01.779Z,101870.23
2018-11-02T10:03:06.353Z,101875.34
2018-11-02T10:04:10.561Z,101873.80
2018-11-02T10:05:15.089Z,101873.72
2018-11-02T10:06:19.263Z,101872.27
2018-11-02T10:07:24.107Z,101873.39
2018-11-02T10:08:28.429Z,101871.70
2018-11-02T10:09:32.483Z,101874.80
2018-11-02T10:10:37.134Z,101884.77
2018-11-02T10:11:41.311Z,101885.88
2018-11-02T10:12:45.464Z,101877.91
2018-11-02T10:13:50.443Z,101879.97
2018-11-02T10:14:54.675Z,101875.13
2018-11-02T10:15:59.049Z,101881.30
2018-11-02T10:17:03.317Z,101884.34
2018-11-02T10:18:07.523Z,101883.37
2018-11-02T10:19:11.941Z,101880.15
2018-11-02T10:20:15.981Z,101888.13
2018-11-02T10:21:20.415Z,101882.21
2018-11-02T10:22:24.541Z,101875.56
2018-11-02T10:23:28.817Z,101878.48
2018-11-02T10:24:33.023Z,101879.25
2018-11-02T10:25:37.108Z,101878.78
2018-11-02T10:26:41.595Z,101878.78
2018-11-02T10:27:45.720Z,101875.14
2018-11-02T10:28:50.127Z,101876.86
2018-11-02T10:29:54.261Z,101882.56
2018-11-02T10:30:58.503Z,101886.55
2018-11-02T10:32:02.681Z,101886.91
2018-11-02T10:33:06.806Z,101883.03
2018-11-02T10:34:11.161Z,101889.20
2018-11-02T10:35:15.367Z,101884.75
2018-11-02T10:36:19.525Z,101889.56
2018-11-02T10:37:23.761Z,101898.39
2018-11-02T10:38:28.011Z,101905.52
2018-11-02T10:39:33.265Z,101905.17
2018-11-02T10:40:38.701Z,101899.08
2018-11-02T10:41:49.921Z,101903.06
2018-11-02T10:42:56.154Z,101906.97
2018-11-02T10:44:00.514Z,101902.13
2018-11-02T10:45:05.167Z,101904.78
2018-11-02T10:46:09.293Z,101902.13
2018-11-02T10:47:13.620Z,101905.73
2018-11-02T10:48:17.717Z,101906.58
2018-11-02T10:49:21.869Z,101908.77
2018-11-02T10:50:26.023Z,101910.95
2018-11-02T10:51:30.153Z,101909.03
2018-11-02T10:52:34.215Z,101907.61
2018-11-02T10:53:38.330Z,101909.33
2018-11-02T10:54:42.629Z,101909.69
2018-11-02T10:55:46.643Z,101908.47
2018-11-02T10:56:50.837Z,101913.84
2018-11-02T10:57:55.067Z,101908.73
2018-11-02T10:58:59.239Z,101914.58
2018-11-02T11:00:03.448Z,101914.70
2018-11-02T11:02:10.562Z,101924.87
2018-11-02T11:03:14.712Z,101922.98
2018-11-02T11:04:19.097Z,101925.29
2018-11-02T11:05:23.452Z,101924.91
2018-11-02T11:06:27.510Z,101927.56
2018-11-02T11:07:31.676Z,101924.64
2018-11-02T11:08:35.967Z,101925.47
2018-11-02T11:09:40.147Z,101927.66
2018-11-02T11:10:44.310Z,101925.59
2018-11-02T11:11:48.630Z,101929.84
2018-11-02T11:12:53.088Z,101925.59
2018-11-02T11:13:56.861Z,101925.97
2018-11-02T11:15:01.016Z,101922.92
2018-11-02T11:16:05.428Z,101922.45
2018-11-02T11:17:09.677Z,101920.36
2018-11-02T11:18:13.783Z,101916.02
2018-11-02T11:19:17.930Z,101920.91
2018-11-02T11:20:22.169Z,101920.23
2018-11-02T11:21:26.498Z,101926.29
2018-11-02T11:22:30.860Z,101924.87
2018-11-02T11:23:35.072Z,101925.99
2018-11-02T11:24:39.213Z,101915.61
2018-11-02T11:25:43.365Z,101917.84
2018-11-02T11:26:47.520Z,101924.55
2018-11-02T11:27:51.719Z,101926.22
2018-11-02T11:28:55.993Z,101930.52
2018-11-02T11:30:00.121Z,101929.56
2018-11-02T11:31:04.809Z,101933.03
2018-11-02T11:32:08.996Z,101932.69
2018-11-02T11:33:13.182Z,101929.72
2018-11-02T11:34:17.287Z,101933.66
2018-11-02T11:35:21.610Z,101933.92
2018-11-02T11:36:26.332Z,101932.84
2018-11-02T11:37:30.426Z,101938.42
2018-11-02T11:38:35.040Z,101940.27
2018-11-02T11:39:39.206Z,101941.69
2018-11-02T11:40:43.324Z,101938.86
2018-11-02T11:41:47.507Z,101947.45
2018-11-02T11:42:51.664Z,101940.62
2018-11-02T11:43:56.033Z,101945.95
2018-11-02T11:45:00.519Z,101941.95
2018-11-02T11:46:05.290Z,101942.55
2018-11-02T11:47:10.846Z,101942.17
2018-11-02T11:48:15.709Z,101943.62
2018-11-02T11:49:20.189Z,101946.30
2018-11-02T11:50:25.156Z,101945.44
2018-11-02T11:51:29.870Z,101943.72
2018-11-02T11:52:34.983Z,101944.67
2018-11-02T11:53:40.793Z,101945.87
2018-11-02T11:54:45.599Z,101948.14
2018-11-02T11:55:50.804Z,101944.25
2018-11-02T11:56:55.516Z,101939.99
2018-11-02T11:58:00.442Z,101942.87
2018-11-02T11:59:05.077Z,101944.80
2018-11-02T12:00:11.636Z,101943.55
2018-11-02T12:01:15.847Z,101949.00
2018-11-02T12:02:20.148Z,101946.88
2018-11-02T12:03:24.264Z,101942.14
2018-11-02T12:04:28.806Z,101939.10
2018-11-02T12:05:32.996Z,101940.34
2018-11-02T12:06:37.849Z,101939.84
2018-11-02T12:07:42.283Z,101937.17
2018-11-02T12:08:46.608Z,101934.89
2018-11-02T12:09:50.897Z,101943.27
2018-11-02T12:10:55.075Z,101930.52
2018-11-02T12:11:59.395Z,101946.48
2018-11-02T12:13:03.514Z,101945.44
2018-11-02T12:14:08.006Z,101947.98
2018-11-02T12:15:15.149Z,101952.14
2018-11-02T12:16:19.599Z,101951.06